createdAt,value
2022-08-08T00:00:56.317Z,15.38
2022-08-08T00:01:06.587Z,15.36
2022-08-08T00:02:03.979Z,15.34
2022-08-08T00:02:51.307Z,15.34
2022-08-08T00:03:50.589Z,15.32
2022-08-08T00:04:53.087Z,15.29
2022-08-08T00:06:03.197Z,15.29
2022-08-08T00:06:52.343Z,15.28
2022-08-08T00:07:51.661Z,15.27
2022-08-08T00:08:52.002Z,15.25
2022-08-08T00:09:52.662Z,15.23
2022-08-08T00:10:52.580Z,15.25
2022-08-08T00:12:07.519Z,15.21
2022-08-08T00:12:56.742Z,15.20
2022-08-08T00:14:15.188Z,15.19
2022-08-08T00:14:59.892Z,15.21
2022-08-08T00:15:56.910Z,15.19
2022-08-08T00:16:54.534Z,15.17
2022-08-08T00:18:03.023Z,15.17
2022-08-08T00:18:56.102Z,15.16
2022-08-08T00:19:55.380Z,15.16
2022-08-08T00:20:55.930Z,15.16
2022-08-08T00:21:56.046Z,15.13
2022-08-08T00:22:56.241Z,15.13
2022-08-08T00:23:56.515Z,15.11
2022-08-08T00:24:56.847Z,15.07
2022-08-08T00:25:57.075Z,15.06
2022-08-08T00:26:57.427Z,15.02
2022-08-08T00:27:57.674Z,15.02
2022-08-08T00:28:58.006Z,14.99
2022-08-08T00:29:58.335Z,14.98
2022-08-08T00:31:00.417Z,14.98
2022-08-08T00:32:21.542Z,14.95
2022-08-08T00:33:00.233Z,14.94
2022-08-08T00:34:17.145Z,14.92
2022-08-08T00:35:00.899Z,14.91
2022-08-08T00:36:00.120Z,14.91
2022-08-08T00:37:03.441Z,14.94
2022-08-08T00:38:01.501Z,14.91
2022-08-08T00:39:01.155Z,14.88
2022-08-08T00:41:07.147Z,14.89
2022-08-08T00:41:09.246Z,14.88
2022-08-08T00:42:08.781Z,14.86
2022-08-08T00:43:11.907Z,14.84
2022-08-08T00:44:03.535Z,14.84
2022-08-08T00:45:03.165Z,14.86
2022-08-08T00:46:02.940Z,14.84
2022-08-08T00:47:04.545Z,14.83
2022-08-08T00:48:06.317Z,14.80
2022-08-08T00:49:03.831Z,14.73
2022-08-08T00:50:05.210Z,14.70
2022-08-08T00:51:04.502Z,14.69
2022-08-08T00:52:04.948Z,14.70
2022-08-08T00:53:06.852Z,14.70
2022-08-08T00:54:15.544Z,14.70
2022-08-08T00:55:06.746Z,14.69
2022-08-08T00:56:09.418Z,14.68
2022-08-08T00:57:07.412Z,14.65
2022-08-08T00:58:12.581Z,14.65
2022-08-08T00:59:08.813Z,14.65
2022-08-08T01:00:07.349Z,14.64
2022-08-08T01:01:07.601Z,14.64
2022-08-08T01:03:15.256Z,14.61
2022-08-08T01:03:59.158Z,14.61
2022-08-08T01:04:10.891Z,14.58
2022-08-08T01:05:08.595Z,14.60
2022-08-08T01:06:11.776Z,14.57
2022-08-08T01:07:09.210Z,14.57
2022-08-08T01:08:09.476Z,14.55
2022-08-08T01:09:35.941Z,14.54
2022-08-08T01:10:11.139Z,14.51
2022-08-08T01:11:10.398Z,14.51
2022-08-08T01:12:10.759Z,14.51
2022-08-08T01:13:10.968Z,14.51
2022-08-08T01:14:13.643Z,14.50
2022-08-08T01:15:12.550Z,14.45
2022-08-08T01:16:12.901Z,14.45
2022-08-08T01:17:12.180Z,14.40
2022-08-08T01:18:25.042Z,14.43
2022-08-08T01:19:41.942Z,14.40
2022-08-08T01:20:13.979Z,14.40
2022-08-08T01:21:14.096Z,14.40
2022-08-08T01:22:23.076Z,14.40
2022-08-08T01:24:03.006Z,14.40
2022-08-08T01:24:16.676Z,14.40
2022-08-08T01:25:16.811Z,14.40
2022-08-08T01:26:14.683Z,14.40
2022-08-08T01:27:16.280Z,14.40
2022-08-08T01:28:17.924Z,14.39
2022-08-08T01:29:15.592Z,14.36
2022-08-08T01:30:15.794Z,14.36
2022-08-08T01:32:05.511Z,14.35
2022-08-08T01:32:17.663Z,14.33
2022-08-08T01:33:27.531Z,14.32
2022-08-08T01:34:20.364Z,14.29
2022-08-08T01:35:17.214Z,14.32
2022-08-08T01:36:17.556Z,14.33
2022-08-08T01:37:21.837Z,14.29
2022-08-08T01:38:20.845Z,14.28
2022-08-08T01:39:23.504Z,14.27
2022-08-08T01:40:20.098Z,14.22
2022-08-08T01:41:19.177Z,14.22
2022-08-08T01:42:19.497Z,14.22
2022-08-08T01:43:19.803Z,14.21
2022-08-08T01:44:20.139Z,14.20
2022-08-08T01:45:21.249Z,14.21
2022-08-08T01:46:20.827Z,14.18
2022-08-08T01:48:16.599Z,14.15
2022-08-08T01:48:30.184Z,14.18
2022-08-08T01:49:23.356Z,14.17
2022-08-08T01:50:26.301Z,14.18
2022-08-08T01:51:32.425Z,14.18
2022-08-08T01:53:10.419Z,14.14
2022-08-08T01:55:15.453Z,14.14
2022-08-08T01:55:17.812Z,14.14
2022-08-08T01:56:26.370Z,14.14
2022-08-08T01:56:28.946Z,14.10
2022-08-08T01:57:25.021Z,14.07
2022-08-08T01:58:38.523Z,14.06
2022-08-08T02:00:00.943Z,14.04
2022-08-08T02:00:25.907Z,14.04
2022-08-08T02:01:28.111Z,14.03
2022-08-08T02:02:34.974Z,14.03
2022-08-08T02:03:55.767Z,14.03
2022-08-08T02:04:28.198Z,14.03
2022-08-08T02:05:26.441Z,14.00
2022-08-08T02:06:32.949Z,14.00
2022-08-08T02:07:28.054Z,14.00
2022-08-08T02:08:34.039Z,14.00
2022-08-08T02:10:02.305Z,14.00
2022-08-08T02:10:29.946Z,13.99
2022-08-08T02:11:59.164Z,13.96
2022-08-08T02:12:29.521Z,13.99
2022-08-08T02:13:53.354Z,13.97
2022-08-08T02:14:30.001Z,13.95
2022-08-08T02:15:29.267Z,13.92
2022-08-08T02:16:30.607Z,13.89
2022-08-08T02:17:43.064Z,13.91
2022-08-08T02:18:31.204Z,13.89
2022-08-08T02:19:57.176Z,13.87
2022-08-08T02:21:02.899Z,13.87
2022-08-08T02:21:32.097Z,13.87
2022-08-08T02:22:31.824Z,13.87
2022-08-08T02:23:35.271Z,13.87
2022-08-08T02:24:32.010Z,13.84
2022-08-08T02:25:43.667Z,13.81
2022-08-08T02:26:34.041Z,13.79
2022-08-08T02:27:42.313Z,13.78
2022-08-08T02:28:35.001Z,13.77
2022-08-08T02:29:41.508Z,13.75
2022-08-08T02:30:34.750Z,13.73
2022-08-08T02:31:57.998Z,13.73
2022-08-08T02:32:35.593Z,13.70
2022-08-08T02:33:41.621Z,13.71
2022-08-08T02:34:35.972Z,13.69
2022-08-08T02:36:03.896Z,13.67
2022-08-08T02:36:36.445Z,13.66
2022-08-08T02:37:53.359Z,13.64
2022-08-08T02:38:37.272Z,13.63
2022-08-08T02:39:40.585Z,13.62
2022-08-08T02:40:37.739Z,13.62
2022-08-08T02:41:58.403Z,13.62
2022-08-08T02:42:41.742Z,13.62
2022-08-08T02:44:42.530Z,13.62
2022-08-08T02:44:54.316Z,13.63
2022-08-08T02:45:51.646Z,13.62
2022-08-08T02:46:41.505Z,13.63
2022-08-08T02:47:38.805Z,13.60
2022-08-08T02:48:42.669Z,13.59
2022-08-08T02:49:48.207Z,13.59
2022-08-08T02:50:40.717Z,13.55
2022-08-08T02:51:55.011Z,13.57
2022-08-08T02:52:41.219Z,13.55
2022-08-08T02:53:40.458Z,13.54
2022-08-08T02:54:40.787Z,13.55
2022-08-08T02:56:41.765Z,13.55
2022-08-08T02:57:45.025Z,13.52
2022-08-08T02:58:42.355Z,13.54
2022-08-08T02:59:57.589Z,13.54
2022-08-08T03:00:50.549Z,13.55
2022-08-08T03:01:49.941Z,13.52
2022-08-08T03:02:50.230Z,13.51
2022-08-08T03:05:01.314Z,13.52
2022-08-08T03:05:05.254Z,13.49
2022-08-08T03:05:46.759Z,13.48
2022-08-08T03:06:45.743Z,13.48
2022-08-08T03:07:58.942Z,13.45
2022-08-08T03:08:51.965Z,13.46
2022-08-08T03:09:46.597Z,13.45
2022-08-08T03:10:53.597Z,13.45
2022-08-08T03:12:01.463Z,13.42
2022-08-08T03:13:02.372Z,13.42
2022-08-08T03:15:57.496Z,13.44
2022-08-08T03:15:58.629Z,13.44
2022-08-08T03:15:59.339Z,13.45
2022-08-08T03:16:48.865Z,13.46
2022-08-08T03:17:59.863Z,13.46
2022-08-08T03:18:49.196Z,13.45
2022-08-08T03:19:50.463Z,13.46
2022-08-08T03:20:51.930Z,13.48
2022-08-08T03:21:58.460Z,13.46
2022-08-08T03:22:56.099Z,13.48
2022-08-08T03:23:57.560Z,13.49
2022-08-08T03:24:50.771Z,13.49
2022-08-08T03:25:51.050Z,13.49
2022-08-08T03:26:50.311Z,13.49
2022-08-08T03:27:56.845Z,13.51
2022-08-08T03:28:51.933Z,13.52
2022-08-08T03:29:54.809Z,13.51
2022-08-08T03:31:22.187Z,13.55
2022-08-08T03:32:06.721Z,13.55
2022-08-08T03:33:00.063Z,13.57
2022-08-08T03:33:55.386Z,13.55
2022-08-08T03:34:53.372Z,13.57
2022-08-08T03:35:52.703Z,13.57
2022-08-08T03:36:52.942Z,13.59
2022-08-08T03:38:55.095Z,13.59
2022-08-08T03:39:07.422Z,13.62
2022-08-08T03:40:00.685Z,13.62
2022-08-08T03:40:55.080Z,13.64
2022-08-08T03:42:28.228Z,13.63
2022-08-08T03:42:55.558Z,13.62
2022-08-08T03:43:54.839Z,13.63
2022-08-08T03:44:56.158Z,13.62
2022-08-08T03:46:06.098Z,13.62
2022-08-08T03:46:56.781Z,13.60
2022-08-08T03:47:56.071Z,13.63
2022-08-08T03:49:56.157Z,13.63
2022-08-08T03:50:01.898Z,13.63
2022-08-08T03:50:56.969Z,13.62
2022-08-08T03:51:57.212Z,13.64
2022-08-08T03:52:57.449Z,13.64
2022-08-08T03:53:57.770Z,13.67
2022-08-08T03:55:10.003Z,13.67
2022-08-08T03:56:04.242Z,13.69
2022-08-08T03:56:59.696Z,13.70
2022-08-08T03:58:34.049Z,13.71
2022-08-08T03:59:00.142Z,13.73
2022-08-08T04:00:07.628Z,13.75
2022-08-08T04:01:23.256Z,13.77
2022-08-08T04:02:31.610Z,13.77
2022-08-08T04:03:03.380Z,13.78
2022-08-08T04:04:01.901Z,13.79
2022-08-08T04:05:01.811Z,13.79
2022-08-08T04:06:01.281Z,13.81
2022-08-08T04:07:01.973Z,13.81
2022-08-08T04:08:01.855Z,13.82
2022-08-08T04:09:11.022Z,13.82
2022-08-08T04:10:05.784Z,13.85
2022-08-08T04:11:02.737Z,13.87
2022-08-08T04:12:04.064Z,13.89
2022-08-08T04:13:17.430Z,13.89
2022-08-08T04:14:35.426Z,13.89
2022-08-08T04:15:04.906Z,13.92
2022-08-08T04:16:05.688Z,13.92
2022-08-08T04:17:06.862Z,13.91
2022-08-08T04:18:05.808Z,13.92
2022-08-08T04:19:05.095Z,13.92
2022-08-08T04:20:08.109Z,13.95
2022-08-08T04:21:06.419Z,13.96
2022-08-08T04:22:06.043Z,13.96
2022-08-08T04:23:07.757Z,13.96
2022-08-08T04:24:18.993Z,13.96
2022-08-08T04:25:07.925Z,13.97
2022-08-08T04:26:09.398Z,13.97
2022-08-08T04:27:10.444Z,13.99
2022-08-08T04:28:35.117Z,14.02
2022-08-08T04:29:09.073Z,14.03
2022-08-08T04:30:18.552Z,14.06
2022-08-08T04:31:09.672Z,14.09
2022-08-08T04:32:10.569Z,14.12
2022-08-08T04:33:09.261Z,14.14
2022-08-08T04:34:09.582Z,14.20
2022-08-08T04:35:13.485Z,14.22
2022-08-08T04:36:10.271Z,14.27
2022-08-08T04:37:10.593Z,14.28
2022-08-08T04:38:10.908Z,14.35
2022-08-08T04:40:04.226Z,14.39
2022-08-08T04:40:13.042Z,14.43
2022-08-08T04:41:17.785Z,14.47
2022-08-08T04:42:15.981Z,14.51
2022-08-08T04:43:12.358Z,14.55
2022-08-08T04:44:12.646Z,14.58
2022-08-08T04:45:12.953Z,14.60
2022-08-08T04:46:14.536Z,14.64
2022-08-08T04:47:13.506Z,14.68
2022-08-08T04:48:14.964Z,14.69
2022-08-08T04:49:13.987Z,14.72
2022-08-08T04:50:23.672Z,14.73
2022-08-08T04:51:17.446Z,14.77
2022-08-08T04:52:15.798Z,14.78
2022-08-08T04:54:26.892Z,14.81
2022-08-08T04:54:39.650Z,14.81
2022-08-08T04:55:16.689Z,14.84
2022-08-08T04:56:16.005Z,14.88
2022-08-08T04:57:16.255Z,14.88
2022-08-08T04:58:17.751Z,14.89
2022-08-08T04:59:16.787Z,14.92
2022-08-08T05:00:19.659Z,14.94
2022-08-08T05:01:17.319Z,14.95
2022-08-08T05:02:31.193Z,14.98
2022-08-08T05:04:11.123Z,14.98
2022-08-08T05:04:19.175Z,15.02
2022-08-08T05:05:20.524Z,15.07
2022-08-08T05:06:25.600Z,15.10
2022-08-08T05:07:19.999Z,15.13
2022-08-08T05:08:19.288Z,15.16
2022-08-08T05:09:20.609Z,15.20
2022-08-08T05:10:19.917Z,15.25
2022-08-08T05:11:24.679Z,15.41
2022-08-08T05:12:21.496Z,15.76
2022-08-08T05:13:21.803Z,16.11
2022-08-08T05:14:21.040Z,16.35
2022-08-08T05:15:21.290Z,16.66
2022-08-08T05:16:55.076Z,16.93
2022-08-08T05:17:22.925Z,17.04
2022-08-08T05:18:22.225Z,17.08
2022-08-08T05:20:11.903Z,16.94
2022-08-08T05:20:24.518Z,16.81
2022-08-08T05:21:23.150Z,16.96
2022-08-08T05:22:23.279Z,17.28
2022-08-08T05:23:23.587Z,17.59
2022-08-08T05:24:26.169Z,17.93
2022-08-08T05:25:24.091Z,18.20
2022-08-08T05:26:27.445Z,18.54
2022-08-08T05:27:24.544Z,18.80
2022-08-08T05:28:56.680Z,18.95
2022-08-08T05:29:28.372Z,19.04
2022-08-08T05:30:28.069Z,19.07
2022-08-08T05:32:03.755Z,19.02
2022-08-08T05:32:29.946Z,18.90
2022-08-08T05:33:26.442Z,18.84
2022-08-08T05:34:27.774Z,18.87
2022-08-08T05:35:27.074Z,18.88
2022-08-08T05:36:28.045Z,18.92
2022-08-08T05:37:39.232Z,18.99
2022-08-08T05:38:31.619Z,19.13
2022-08-08T05:39:28.664Z,19.32
2022-08-08T05:40:29.480Z,19.43
2022-08-08T05:41:28.802Z,19.50
2022-08-08T05:42:29.140Z,19.55
2022-08-08T05:43:40.257Z,19.62
2022-08-08T05:44:31.202Z,19.59
2022-08-08T05:45:31.269Z,19.68
2022-08-08T05:46:31.388Z,19.80
2022-08-08T05:47:52.750Z,19.91
2022-08-08T05:48:31.942Z,20.08
2022-08-08T05:49:31.283Z,20.26
2022-08-08T05:50:33.469Z,20.21
2022-08-08T05:51:48.036Z,20.16
2022-08-08T05:52:36.122Z,20.14
2022-08-08T05:54:25.874Z,20.17
2022-08-08T05:54:51.059Z,20.20
2022-08-08T05:56:09.492Z,20.24
2022-08-08T05:56:34.262Z,20.31
2022-08-08T05:58:03.874Z,20.29
2022-08-08T05:58:35.061Z,20.35
2022-08-08T05:59:58.879Z,20.42
2022-08-08T06:00:35.549Z,20.33
2022-08-08T06:01:51.129Z,20.14
2022-08-08T06:02:36.206Z,20.21
2022-08-08T06:03:35.549Z,20.26
2022-08-08T06:04:35.749Z,20.33
2022-08-08T06:05:36.557Z,20.59
2022-08-08T06:06:36.369Z,20.85
2022-08-08T06:07:36.640Z,20.97
2022-08-08T06:08:37.999Z,21.22
2022-08-08T06:09:58.123Z,21.50
2022-08-08T06:10:39.336Z,21.69
2022-08-08T06:11:45.783Z,21.74
2022-08-08T06:12:39.202Z,21.52
2022-08-08T06:13:47.661Z,21.14
2022-08-08T06:14:39.850Z,21.14
2022-08-08T06:15:51.147Z,21.16
2022-08-08T06:16:40.353Z,21.10
2022-08-08T06:17:51.614Z,20.98
2022-08-08T06:18:40.954Z,20.98
2022-08-08T06:19:40.255Z,21.04
2022-08-08T06:20:40.519Z,21.17
2022-08-08T06:21:51.150Z,21.21
2022-08-08T06:22:42.411Z,21.21
2022-08-08T06:23:53.060Z,21.31
2022-08-08T06:24:47.170Z,21.35
2022-08-08T06:26:42.873Z,21.28
2022-08-08T06:26:50.555Z,21.37
2022-08-08T06:27:47.874Z,21.43
2022-08-08T06:28:43.799Z,21.40
2022-08-08T06:29:59.844Z,21.25
2022-08-08T06:30:44.402Z,21.24
2022-08-08T06:32:09.018Z,21.10
2022-08-08T06:32:47.704Z,20.95
2022-08-08T06:34:27.698Z,20.85
2022-08-08T06:34:52.491Z,21.07
2022-08-08T06:36:06.924Z,21.24
2022-08-08T06:36:53.706Z,21.43
2022-08-08T06:37:46.389Z,21.56
2022-08-08T06:38:45.635Z,21.74
2022-08-08T06:39:56.370Z,22.02
2022-08-08T06:40:48.653Z,22.05
2022-08-08T06:41:49.097Z,21.92
2022-08-08T06:42:46.709Z,21.94
2022-08-08T06:43:47.833Z,22.06
2022-08-08T06:44:48.347Z,22.09
2022-08-08T06:45:48.231Z,22.22
2022-08-08T06:46:48.006Z,22.39
2022-08-08T06:47:52.657Z,22.45
2022-08-08T06:48:49.548Z,22.45
2022-08-08T06:49:54.834Z,22.35
2022-08-08T06:50:52.007Z,22.12
2022-08-08T06:51:57.766Z,21.96
2022-08-08T06:52:50.847Z,21.74
2022-08-08T06:53:51.058Z,21.52
2022-08-08T06:54:51.434Z,21.31
2022-08-08T06:56:00.805Z,21.16
2022-08-08T06:56:52.891Z,20.98
2022-08-08T06:57:56.319Z,20.74
2022-08-08T06:58:52.733Z,20.50
2022-08-08T07:00:12.644Z,20.35
2022-08-08T07:00:53.313Z,20.20
2022-08-08T07:02:27.157Z,19.98
2022-08-08T07:02:54.031Z,19.88
2022-08-08T07:04:37.613Z,19.76
2022-08-08T07:04:54.605Z,19.58
2022-08-08T07:06:01.657Z,19.48
2022-08-08T07:06:55.170Z,19.39
2022-08-08T07:07:55.362Z,19.33
2022-08-08T07:08:54.732Z,19.32
2022-08-08T07:09:59.493Z,19.29
2022-08-08T07:10:56.361Z,19.28
2022-08-08T07:11:55.661Z,19.32
2022-08-08T07:12:55.902Z,19.39
2022-08-08T07:14:00.907Z,19.36
2022-08-08T07:14:57.987Z,19.36
2022-08-08T07:16:04.793Z,19.36
2022-08-08T07:16:57.952Z,19.33
2022-08-08T07:18:01.740Z,19.40
2022-08-08T07:18:58.575Z,19.48
2022-08-08T07:19:59.840Z,19.48
2022-08-08T07:20:58.421Z,19.47
2022-08-08T07:22:05.325Z,19.44
2022-08-08T07:22:59.663Z,19.46
2022-08-08T07:24:03.655Z,19.43
2022-08-08T07:25:00.277Z,19.47
2022-08-08T07:25:59.579Z,19.51
2022-08-08T07:26:59.842Z,19.56
2022-08-08T07:28:02.673Z,19.62
2022-08-08T07:29:05.942Z,19.69
2022-08-08T07:30:10.012Z,19.71
2022-08-08T07:31:01.892Z,19.68
2022-08-08T07:32:01.703Z,19.68
2022-08-08T07:33:01.525Z,19.68
2022-08-08T07:34:01.812Z,19.73
2022-08-08T07:35:03.015Z,19.77
2022-08-08T07:36:02.312Z,19.83
2022-08-08T07:37:02.574Z,19.87
2022-08-08T07:38:10.009Z,19.94
2022-08-08T07:39:04.221Z,19.99
2022-08-08T07:40:03.494Z,20.05
2022-08-08T07:41:04.640Z,20.14
2022-08-08T07:42:05.384Z,20.21
2022-08-08T07:43:08.837Z,20.26
2022-08-08T07:44:17.668Z,20.32
2022-08-08T07:45:05.964Z,20.39
2022-08-08T07:46:23.371Z,20.42
2022-08-08T07:47:06.576Z,20.38
2022-08-08T07:48:05.867Z,20.35
2022-08-08T07:49:06.128Z,20.29
2022-08-08T07:50:06.386Z,20.33
2022-08-08T07:51:08.146Z,20.38
2022-08-08T07:52:07.980Z,20.43
2022-08-08T07:53:08.229Z,20.33
2022-08-08T07:54:07.552Z,20.32
2022-08-08T07:55:07.800Z,20.32
2022-08-08T07:56:08.030Z,20.31
2022-08-08T07:57:09.109Z,20.32
2022-08-08T07:58:08.504Z,20.35
2022-08-08T07:59:08.812Z,20.42
2022-08-08T08:00:15.954Z,20.55
2022-08-08T08:01:10.426Z,20.61
2022-08-08T08:02:35.200Z,20.72
2022-08-08T08:03:20.470Z,20.79
2022-08-08T08:04:13.719Z,20.87
2022-08-08T08:05:14.821Z,20.95
2022-08-08T08:06:11.927Z,21.04
2022-08-08T08:07:11.902Z,21.09
2022-08-08T08:08:11.526Z,21.09
2022-08-08T08:09:11.777Z,21.07
2022-08-08T08:10:12.445Z,21.10
2022-08-08T08:11:12.595Z,21.17
2022-08-08T08:12:31.510Z,21.21
2022-08-08T08:13:17.768Z,21.22
2022-08-08T08:14:15.228Z,21.28
2022-08-08T08:15:15.720Z,21.31
2022-08-08T08:16:13.710Z,21.31
2022-08-08T08:17:14.068Z,21.38
2022-08-08T08:18:14.581Z,21.38
2022-08-08T08:19:14.978Z,21.42
2022-08-08T08:20:14.897Z,21.37
2022-08-08T08:21:18.976Z,21.40
2022-08-08T08:22:15.462Z,21.43
2022-08-08T08:23:16.794Z,21.43
2022-08-08T08:24:16.124Z,21.44
2022-08-08T08:25:19.146Z,21.47
2022-08-08T08:26:27.243Z,21.50
2022-08-08T08:27:18.136Z,21.53
2022-08-08T08:28:23.631Z,21.53
2022-08-08T08:29:19.484Z,21.56
2022-08-08T08:30:18.128Z,21.62
2022-08-08T08:31:18.374Z,21.67
2022-08-08T08:32:31.779Z,21.71
2022-08-08T08:33:20.120Z,21.75
2022-08-08T08:34:19.198Z,21.79
2022-08-08T08:35:21.685Z,21.83
2022-08-08T08:36:21.834Z,21.86
2022-08-08T08:37:21.052Z,21.91
2022-08-08T08:38:20.472Z,21.91
2022-08-08T08:39:22.995Z,21.90
2022-08-08T08:40:20.893Z,21.86
2022-08-08T08:41:22.443Z,21.90
2022-08-08T08:42:29.340Z,21.94
2022-08-08T08:43:28.958Z,21.99
2022-08-08T08:44:22.980Z,21.99
2022-08-08T08:45:23.963Z,21.99
2022-08-08T08:46:25.754Z,22.03
2022-08-08T08:47:22.777Z,22.07
2022-08-08T08:48:23.029Z,22.09
2022-08-08T08:49:26.025Z,22.10
2022-08-08T08:50:33.389Z,22.05
2022-08-08T08:51:24.922Z,22.03
2022-08-08T08:52:24.213Z,22.02
2022-08-08T08:53:27.170Z,22.02
2022-08-08T08:54:25.085Z,22.05
2022-08-08T08:55:25.126Z,22.10
2022-08-08T08:56:25.396Z,22.15
2022-08-08T08:57:25.783Z,22.15
2022-08-08T08:58:26.068Z,22.17
2022-08-08T08:59:57.531Z,22.17
2022-08-08T09:00:39.648Z,22.12
2022-08-08T09:01:28.007Z,22.12
2022-08-08T09:02:27.222Z,22.15
2022-08-08T09:03:46.078Z,22.18
2022-08-08T09:04:31.034Z,22.21
2022-08-08T09:05:53.762Z,22.20
2022-08-08T09:06:33.295Z,22.21
2022-08-08T09:07:39.290Z,22.25
2022-08-08T09:08:29.755Z,22.25
2022-08-08T09:09:38.987Z,22.28
2022-08-08T09:10:30.374Z,22.30
2022-08-08T09:11:33.014Z,22.28
2022-08-08T09:12:30.009Z,22.31
2022-08-08T09:13:30.245Z,22.35
2022-08-08T09:14:30.570Z,22.36
2022-08-08T09:15:41.654Z,22.40
2022-08-08T09:16:32.666Z,22.45
2022-08-08T09:17:41.289Z,22.46
2022-08-08T09:18:32.806Z,22.45
2022-08-08T09:21:58.127Z,22.43
2022-08-08T09:21:59.699Z,22.49
2022-08-08T09:22:01.476Z,22.45
2022-08-08T09:22:33.901Z,22.54
2022-08-08T09:23:33.562Z,22.57
2022-08-08T09:24:34.493Z,22.58
2022-08-08T09:25:35.857Z,22.55
2022-08-08T09:26:39.404Z,22.58
2022-08-08T09:27:56.919Z,22.57
2022-08-08T09:28:38.271Z,22.57
2022-08-08T09:29:35.061Z,22.57
2022-08-08T09:30:36.401Z,22.58
2022-08-08T09:31:42.119Z,22.61
2022-08-08T09:32:37.014Z,22.61
2022-08-08T09:34:14.550Z,22.60
2022-08-08T09:34:37.923Z,22.58
2022-08-08T09:35:37.316Z,22.55
2022-08-08T09:36:37.764Z,22.54
2022-08-08T09:37:58.392Z,22.55
2022-08-08T09:38:52.427Z,22.57
2022-08-08T09:39:38.916Z,22.57
2022-08-08T09:40:43.981Z,22.58
2022-08-08T09:42:13.990Z,22.61
2022-08-08T09:42:44.529Z,22.65
2022-08-08T09:44:04.525Z,22.68
2022-08-08T09:44:40.763Z,22.73
2022-08-08T09:45:54.612Z,22.76
2022-08-08T09:46:40.772Z,22.83
2022-08-08T09:48:09.754Z,22.88
2022-08-08T09:48:42.623Z,22.97
2022-08-08T09:49:42.279Z,23.01
2022-08-08T09:50:43.890Z,23.05
2022-08-08T09:52:01.497Z,23.07
2022-08-08T09:52:56.783Z,23.10
2022-08-08T09:53:59.069Z,23.13
2022-08-08T09:54:44.143Z,23.15
2022-08-08T09:56:04.646Z,23.19
2022-08-08T09:56:44.654Z,23.25
2022-08-08T09:57:46.316Z,23.32
2022-08-08T09:58:45.077Z,23.36
2022-08-08T10:00:01.907Z,23.43
2022-08-08T10:00:53.120Z,23.42
2022-08-08T10:02:12.246Z,23.42
2022-08-08T10:02:45.467Z,23.33
2022-08-08T10:03:44.759Z,23.23
2022-08-08T10:04:48.002Z,23.19
2022-08-08T10:05:46.756Z,23.16
2022-08-08T10:06:45.560Z,23.10
2022-08-08T10:07:46.897Z,23.05
2022-08-08T10:08:46.139Z,23.05
2022-08-08T10:10:00.701Z,23.05
2022-08-08T10:10:51.042Z,23.00
2022-08-08T10:12:27.200Z,23.01
2022-08-08T10:12:53.866Z,23.04
2022-08-08T10:13:48.653Z,23.05
2022-08-08T10:14:48.898Z,23.04
2022-08-08T10:16:00.717Z,23.09
2022-08-08T10:16:49.522Z,23.10
2022-08-08T10:18:05.285Z,23.09
2022-08-08T10:18:55.309Z,23.09
2022-08-08T10:19:58.130Z,23.13
2022-08-08T10:20:57.928Z,23.15
2022-08-08T10:21:51.309Z,23.15
2022-08-08T10:22:54.869Z,23.13
2022-08-08T10:23:58.544Z,23.12
2022-08-08T10:24:51.625Z,23.12
2022-08-08T10:25:57.242Z,23.12
2022-08-08T10:26:59.390Z,23.07
2022-08-08T10:27:52.510Z,23.13
2022-08-08T10:28:53.645Z,23.20
2022-08-08T10:29:59.303Z,23.23
2022-08-08T10:30:59.666Z,23.27
2022-08-08T10:31:54.986Z,23.28
2022-08-08T10:32:52.950Z,23.31
2022-08-08T10:34:19.593Z,23.31
2022-08-08T10:34:58.822Z,23.33
2022-08-08T10:36:20.762Z,23.33
2022-08-08T10:36:55.022Z,23.36
2022-08-08T10:37:54.324Z,23.40
2022-08-08T10:38:54.565Z,23.40
2022-08-08T10:39:55.421Z,23.42
2022-08-08T10:40:55.233Z,23.48
2022-08-08T10:42:13.295Z,23.53
2022-08-08T10:42:56.798Z,23.63
2022-08-08T10:43:56.106Z,23.66
2022-08-08T10:44:56.458Z,23.69
2022-08-08T10:45:58.753Z,23.72
2022-08-08T10:46:57.007Z,23.78
2022-08-08T10:47:57.250Z,23.78
2022-08-08T10:48:59.194Z,23.83
2022-08-08T10:50:01.659Z,23.88
2022-08-08T10:50:59.242Z,23.90
2022-08-08T10:51:58.540Z,23.84
2022-08-08T10:52:58.794Z,23.85
2022-08-08T10:54:01.866Z,23.87
2022-08-08T10:55:00.389Z,23.88
2022-08-08T10:56:00.634Z,23.91
2022-08-08T10:56:59.931Z,23.90
2022-08-08T10:58:00.175Z,23.90
2022-08-08T10:59:00.426Z,23.83
2022-08-08T11:00:00.684Z,23.79
2022-08-08T11:01:02.120Z,23.85
2022-08-08T11:02:01.376Z,23.80
2022-08-08T11:03:01.475Z,23.80
2022-08-08T11:04:02.267Z,23.75
2022-08-08T11:05:05.532Z,23.69
2022-08-08T11:06:03.444Z,23.66
2022-08-08T11:07:02.744Z,23.65
2022-08-08T11:08:37.710Z,23.65
2022-08-08T11:09:09.761Z,23.69
2022-08-08T11:10:04.551Z,23.70
2022-08-08T11:11:07.824Z,23.66
2022-08-08T11:12:12.598Z,23.68
2022-08-08T11:13:30.049Z,23.72
2022-08-08T11:14:05.713Z,23.75
2022-08-08T11:15:04.956Z,23.78
2022-08-08T11:16:07.681Z,23.79
2022-08-08T11:17:05.584Z,23.80
2022-08-08T11:18:05.834Z,23.79
2022-08-08T11:19:06.106Z,23.76
2022-08-08T11:20:10.947Z,23.72
2022-08-08T11:21:09.295Z,23.72
2022-08-08T11:22:06.964Z,23.65
2022-08-08T11:23:07.207Z,23.65
2022-08-08T11:24:07.488Z,23.61
2022-08-08T11:25:13.700Z,23.57
2022-08-08T11:26:09.019Z,23.58
2022-08-08T11:27:10.473Z,23.60
2022-08-08T11:28:09.633Z,23.61
2022-08-08T11:29:08.879Z,23.60
2022-08-08T11:30:24.479Z,23.58
2022-08-08T11:31:10.409Z,23.61
2022-08-08T11:32:09.712Z,23.65
2022-08-08T11:33:12.278Z,23.70
2022-08-08T11:34:25.819Z,23.72
2022-08-08T11:35:27.314Z,23.78
2022-08-08T11:36:13.794Z,23.83
2022-08-08T11:37:15.174Z,23.85
2022-08-08T11:38:35.763Z,23.90
2022-08-08T11:39:13.249Z,23.98
2022-08-08T11:40:12.168Z,24.03
2022-08-08T11:41:12.405Z,24.06
2022-08-08T11:42:12.695Z,24.12
2022-08-08T11:43:12.915Z,24.15
2022-08-08T11:44:13.187Z,24.15
2022-08-08T11:45:13.436Z,24.20
2022-08-08T11:46:17.892Z,24.22
2022-08-08T11:47:17.282Z,24.22
2022-08-08T11:48:20.425Z,24.25
2022-08-08T11:49:17.222Z,24.32
2022-08-08T11:50:14.929Z,24.39
2022-08-08T11:51:38.792Z,24.35
2022-08-08T11:52:18.743Z,24.34
2022-08-08T11:53:16.770Z,24.31
2022-08-08T11:54:31.452Z,24.28
2022-08-08T11:55:17.260Z,24.30
2022-08-08T11:56:16.553Z,24.28
2022-08-08T11:57:17.680Z,24.21
2022-08-08T11:58:18.112Z,24.15
2022-08-08T11:59:17.393Z,24.13
2022-08-08T12:00:18.730Z,24.16
2022-08-08T12:01:18.034Z,24.18
2022-08-08T12:02:31.753Z,24.16
2022-08-08T12:03:21.225Z,24.12
2022-08-08T12:04:19.008Z,24.12
2022-08-08T12:05:22.453Z,24.09
2022-08-08T12:06:19.493Z,24.06
2022-08-08T12:07:19.727Z,24.06
2022-08-08T12:08:20.016Z,24.08
2022-08-08T12:09:20.283Z,24.05
2022-08-08T12:10:20.530Z,24.02
2022-08-08T12:11:23.301Z,23.97
2022-08-08T12:12:28.612Z,23.94
2022-08-08T12:13:22.334Z,23.93
2022-08-08T12:14:22.583Z,23.93
2022-08-08T12:15:21.869Z,23.94
2022-08-08T12:16:31.675Z,23.91
2022-08-08T12:17:23.424Z,23.93
2022-08-08T12:18:24.533Z,23.91
2022-08-08T12:19:37.632Z,24.00
2022-08-08T12:20:24.324Z,24.06
2022-08-08T12:21:25.922Z,24.05
2022-08-08T12:22:24.888Z,23.98
2022-08-08T12:23:32.202Z,23.93
2022-08-08T12:24:27.660Z,23.84
2022-08-08T12:25:29.809Z,23.75
2022-08-08T12:26:28.314Z,23.70
2022-08-08T12:27:26.551Z,23.72
2022-08-08T12:28:25.646Z,23.76
2022-08-08T12:29:40.622Z,23.76
2022-08-08T12:30:27.177Z,23.70
2022-08-08T12:31:26.506Z,23.66
2022-08-08T12:32:26.787Z,23.63
2022-08-08T12:33:37.684Z,23.63
2022-08-08T12:34:35.940Z,23.65
2022-08-08T12:35:28.603Z,23.73
2022-08-08T12:36:28.475Z,23.83
2022-08-08T12:37:40.591Z,23.85
2022-08-08T12:38:31.088Z,23.91
2022-08-08T12:40:00.846Z,23.91
2022-08-08T12:40:30.266Z,23.94
2022-08-08T12:41:35.246Z,23.97
2022-08-08T12:42:33.890Z,24.02
2022-08-08T12:43:31.987Z,24.03
2022-08-08T12:44:32.607Z,24.02
2022-08-08T12:45:59.393Z,24.00
2022-08-08T12:46:31.967Z,23.97
2022-08-08T12:47:58.562Z,23.97
2022-08-08T12:48:36.923Z,23.94
2022-08-08T12:49:43.046Z,23.94
2022-08-08T12:50:33.090Z,23.94
2022-08-08T12:51:39.787Z,23.95
2022-08-08T12:52:33.710Z,23.97
2022-08-08T12:53:37.897Z,23.98
2022-08-08T12:54:35.917Z,24.00
2022-08-08T12:55:56.529Z,23.97
2022-08-08T12:56:34.994Z,23.94